createdAt,value
2019-02-02T00:02:27.922Z,96044.73
2019-02-02T00:07:33.175Z,96041.62
2019-02-02T00:12:39.356Z,96054.77
2019-02-02T00:17:44.751Z,96047.55
2019-02-02T00:22:50.318Z,96052.97
2019-02-02T00:27:55.737Z,96037.95
2019-02-02T00:33:01.918Z,96001.38
2019-02-02T00:38:08.653Z,96010.81
2019-02-02T00:43:13.813Z,96024.64
2019-02-02T00:48:19.475Z,96045.59
2019-02-02T00:53:24.844Z,96031.06
2019-02-02T00:58:31.242Z,96040.61
2019-02-02T01:03:37.380Z,96048.80
2019-02-02T01:08:45.579Z,96050.32
2019-02-02T01:13:51.974Z,96051.03
2019-02-02T01:18:57.127Z,96049.31
2019-02-02T01:24:02.493Z,96047.13
2019-02-02T01:29:08.357Z,96018.98
2019-02-02T01:34:13.541Z,96023.31
2019-02-02T01:39:19.785Z,96036.72
2019-02-02T01:44:24.937Z,96040.23
2019-02-02T01:49:31.127Z,96038.13
2019-02-02T01:54:38.381Z,96042.25
2019-02-02T01:59:43.532Z,96041.55
2019-02-02T02:04:49.506Z,96036.02
2019-02-02T02:09:54.686Z,96046.48
2019-02-02T02:14:59.931Z,96053.38
2019-02-02T02:20:06.575Z,96051.80
2019-02-02T02:25:21.404Z,96044.97
2019-02-02T02:30:27.289Z,96035.80
2019-02-02T02:35:32.553Z,96025.77
2019-02-02T02:40:37.714Z,96042.89
2019-02-02T02:45:44.382Z,96031.67
2019-02-02T02:50:49.681Z,96041.00
2019-02-02T02:55:54.990Z,96040.40
2019-02-02T03:01:00.497Z,96035.38
2019-02-02T03:06:06.991Z,96028.77
2019-02-02T03:11:12.167Z,96041.39
2019-02-02T03:16:17.374Z,96046.10
2019-02-02T03:21:24.440Z,96039.70
2019-02-02T03:26:29.717Z,96032.77
2019-02-02T03:31:34.972Z,96056.80
2019-02-02T03:36:40.573Z,96053.20
2019-02-02T03:41:46.129Z,96042.30
2019-02-02T03:46:51.584Z,96045.71
2019-02-02T03:51:57.535Z,96050.11
2019-02-02T03:57:02.702Z,96038.08
2019-02-02T04:02:08.029Z,96038.30
2019-02-02T04:07:13.198Z,96032.70
2019-02-02T04:12:18.409Z,96029.08
2019-02-02T04:17:23.570Z,96033.41
2019-02-02T04:22:29.128Z,96043.18
2019-02-02T04:27:34.281Z,96050.89
2019-02-02T04:32:39.765Z,96053.41
2019-02-02T04:37:45.099Z,96065.83
2019-02-02T04:42:50.259Z,96076.34
2019-02-02T04:47:55.398Z,96059.40
2019-02-02T04:53:00.831Z,96065.63
2019-02-02T04:58:06.400Z,96075.23
2019-02-02T05:03:12.162Z,96074.13
2019-02-02T05:08:17.302Z,96077.02
2019-02-02T05:13:22.445Z,96081.42
2019-02-02T05:18:27.949Z,96079.52
2019-02-02T05:23:33.123Z,96072.34
2019-02-02T05:28:38.274Z,96078.32
2019-02-02T05:33:45.368Z,96083.45
2019-02-02T05:38:50.646Z,96081.03
2019-02-02T05:43:55.745Z,96086.44
2019-02-02T05:49:00.925Z,96097.66
2019-02-02T05:54:06.097Z,96106.98
2019-02-02T05:59:11.455Z,96100.97
2019-02-02T06:04:16.538Z,96081.75
2019-02-02T06:09:23.864Z,96083.23
2019-02-02T06:14:28.974Z,96114.47
2019-02-02T06:19:34.134Z,96117.18
2019-02-02T06:24:40.001Z,96113.28
2019-02-02T06:29:45.519Z,96127.70
2019-02-02T06:34:50.522Z,96141.00
2019-02-02T06:39:55.595Z,96125.70
2019-02-02T06:45:00.594Z,96134.11
2019-02-02T06:50:07.422Z,96149.83
2019-02-02T06:55:13.304Z,96160.33
2019-02-02T07:00:20.391Z,96158.41
2019-02-02T07:05:26.098Z,96179.44
2019-02-02T07:10:31.978Z,96164.52
2019-02-02T07:15:37.132Z,96173.31
2019-02-02T07:20:43.274Z,96178.33
2019-02-02T07:25:48.417Z,96180.93
2019-02-02T07:30:53.635Z,96187.34
2019-02-02T07:35:59.456Z,96188.36
2019-02-02T07:41:04.879Z,96209.08
2019-02-02T07:46:14.990Z,96208.97
2019-02-02T07:51:17.215Z,96230.42
2019-02-02T07:56:22.365Z,96241.52
2019-02-02T08:01:27.516Z,96255.14
2019-02-02T08:06:32.586Z,96269.63
2019-02-02T08:11:37.727Z,96278.48
2019-02-02T08:16:43.246Z,96268.27
2019-02-02T08:21:49.292Z,96279.39
2019-02-02T08:26:54.525Z,96300.80
2019-02-02T08:31:59.703Z,96301.21
2019-02-02T08:37:04.975Z,96288.69
2019-02-02T08:42:10.720Z,96275.06
2019-02-02T08:47:16.218Z,96279.17
2019-02-02T08:52:21.710Z,96282.58
2019-02-02T08:57:27.066Z,96288.19
2019-02-02T09:02:32.284Z,96300.25
2019-02-02T09:07:38.640Z,96319.36
2019-02-02T09:12:43.795Z,96331.59
2019-02-02T09:17:49.047Z,96307.97
2019-02-02T09:23:03.893Z,96322.20
2019-02-02T09:28:03.333Z,96325.59
2019-02-02T09:33:08.929Z,96342.44
2019-02-02T09:38:14.084Z,96340.33
2019-02-02T09:43:19.494Z,96331.73
2019-02-02T09:48:25.799Z,96331.22
2019-02-02T09:53:31.474Z,96333.13
2019-02-02T09:58:36.629Z,96332.73
2019-02-02T10:03:41.775Z,96331.22
2019-02-02T10:08:46.935Z,96332.84
2019-02-02T10:13:52.353Z,96342.67
2019-02-02T10:18:58.930Z,96328.23
2019-02-02T10:24:04.771Z,96325.34
2019-02-02T10:29:10.258Z,96331.16
2019-02-02T10:34:16.040Z,96342.57
2019-02-02T10:39:21.964Z,96356.62
2019-02-02T10:44:27.154Z,96367.91
2019-02-02T10:49:32.382Z,96369.12
2019-02-02T10:54:37.915Z,96367.64
2019-02-02T10:59:43.777Z,96375.45
2019-02-02T11:04:48.853Z,96373.05
2019-02-02T11:09:54.001Z,96376.16
2019-02-02T11:15:00.182Z,96371.27
2019-02-02T11:20:07.462Z,96363.45
2019-02-02T11:25:14.118Z,96361.04
2019-02-02T11:30:19.315Z,96359.14
2019-02-02T11:35:24.798Z,96371.88
2019-02-02T11:40:31.942Z,96388.63
2019-02-02T11:45:37.080Z,96393.62
2019-02-02T11:50:43.132Z,96406.56
2019-02-02T11:55:49.047Z,96397.63
2019-02-02T12:00:55.032Z,96395.23
2019-02-02T12:06:00.162Z,96400.23
2019-02-02T12:11:05.313Z,96399.63
2019-02-02T12:16:10.400Z,96407.88
2019-02-02T12:21:15.551Z,96415.00
2019-02-02T12:26:21.169Z,96428.32
2019-02-02T12:31:26.769Z,96432.95
2019-02-02T12:36:31.956Z,96447.80
2019-02-02T12:41:38.182Z,96453.71
2019-02-02T12:46:43.548Z,96465.36
2019-02-02T12:51:48.687Z,96482.52
2019-02-02T12:56:54.323Z,96479.70
2019-02-02T13:01:59.656Z,96479.29
2019-02-02T13:07:05.024Z,96484.52
2019-02-02T13:12:10.304Z,96482.10
2019-02-02T13:17:15.789Z,96481.09
2019-02-02T13:22:20.890Z,96485.30
2019-02-02T13:27:26.034Z,96492.44
2019-02-02T13:32:31.218Z,96508.70
2019-02-02T13:37:36.289Z,96512.89
2019-02-02T13:42:41.839Z,96500.87
2019-02-02T13:47:47.143Z,96507.99
2019-02-02T13:52:52.612Z,96498.55
2019-02-02T13:57:57.883Z,96498.03
2019-02-02T14:03:03.924Z,96511.91
2019-02-02T14:08:09.427Z,96542.53
2019-02-02T14:13:14.562Z,96550.86
2019-02-02T14:18:20.152Z,96542.04
2019-02-02T14:23:25.287Z,96575.94
2019-02-02T14:28:30.435Z,96597.28
2019-02-02T14:33:35.568Z,96612.09
2019-02-02T14:38:40.710Z,96628.36
2019-02-02T14:43:45.801Z,96663.77
2019-02-02T14:48:50.948Z,96664.63
2019-02-02T14:53:56.451Z,96664.83
2019-02-02T14:59:03.731Z,96664.14
2019-02-02T15:04:08.893Z,96665.03
2019-02-02T15:09:15.000Z,96668.41
2019-02-02T15:14:20.151Z,96675.74
2019-02-02T15:19:25.313Z,96686.30
2019-02-02T15:24:31.050Z,96692.55
2019-02-02T15:29:36.533Z,96701.47
2019-02-02T15:34:42.067Z,96713.04
2019-02-02T15:39:48.115Z,96719.93
2019-02-02T15:44:53.530Z,96725.88
2019-02-02T15:49:58.827Z,96744.75
2019-02-02T15:55:04.826Z,96747.92
2019-02-02T16:00:14.482Z,96751.23
2019-02-02T16:05:20.042Z,96748.00
2019-02-02T16:10:26.984Z,96752.76
2019-02-02T16:15:34.378Z,96763.93
2019-02-02T16:20:43.692Z,96764.44
2019-02-02T16:25:48.908Z,96766.82
2019-02-02T16:30:55.118Z,96772.26
2019-02-02T16:36:00.681Z,96780.70
2019-02-02T16:41:05.823Z,96789.95
2019-02-02T16:46:11.339Z,96815.89
2019-02-02T16:51:17.368Z,96821.63
2019-02-02T16:56:22.471Z,96832.21
2019-02-02T17:01:27.643Z,96843.64
2019-02-02T17:06:32.800Z,96849.41
2019-02-02T17:11:37.969Z,96845.89
2019-02-02T17:16:43.697Z,96849.17
2019-02-02T17:21:48.827Z,96855.36
2019-02-02T17:26:53.979Z,96858.30
2019-02-02T17:31:59.151Z,96852.41
2019-02-02T17:37:05.307Z,96857.42
2019-02-02T17:42:10.457Z,96855.92
2019-02-02T17:47:16.885Z,96852.56
2019-02-02T17:52:22.032Z,96871.42
2019-02-02T17:57:27.187Z,96872.24
2019-02-02T18:02:33.383Z,96885.47
2019-02-02T18:07:38.530Z,96902.83
2019-02-02T18:12:43.821Z,96915.56
2019-02-02T18:17:50.223Z,96924.63
2019-02-02T18:22:55.228Z,96932.33
2019-02-02T18:28:00.745Z,96946.77
2019-02-02T18:33:06.806Z,96949.84
2019-02-02T18:38:11.880Z,96964.47
2019-02-02T18:43:17.356Z,96980.73
2019-02-02T18:48:22.505Z,96984.45
2019-02-02T18:53:27.575Z,97002.84
2019-02-02T18:58:33.172Z,97011.28
2019-02-02T19:03:38.660Z,97015.53
2019-02-02T19:08:44.065Z,97028.31
2019-02-02T19:13:49.281Z,97030.92
2019-02-02T19:18:55.112Z,97030.73
2019-02-02T19:24:00.467Z,97039.66
2019-02-02T19:29:07.120Z,97040.75
2019-02-02T19:34:13.190Z,97044.34
2019-02-02T19:39:19.088Z,97052.98
2019-02-02T19:44:24.231Z,97056.56
2019-02-02T19:49:29.712Z,97059.12
2019-02-02T19:54:34.715Z,97061.10
2019-02-02T19:59:39.798Z,97062.75
2019-02-02T20:04:44.880Z,97070.09
2019-02-02T20:09:49.971Z,97090.11
2019-02-02T20:14:55.139Z,97091.52
2019-02-02T20:20:00.282Z,97104.91
2019-02-02T20:25:06.312Z,97103.61
2019-02-02T20:30:16.735Z,97115.97
2019-02-02T20:35:21.842Z,97130.20
2019-02-02T20:40:27.198Z,97127.21
2019-02-02T20:45:34.111Z,97137.34
2019-02-02T20:50:39.311Z,97144.49
2019-02-02T20:55:46.226Z,97155.41
2019-02-02T21:00:51.332Z,97168.94
2019-02-02T21:05:56.484Z,97173.94
2019-02-02T21:11:01.655Z,97178.38
2019-02-02T21:16:06.937Z,97191.23
2019-02-02T21:21:13.615Z,97191.67
2019-02-02T21:26:19.231Z,97195.10
2019-02-02T21:31:24.716Z,97200.65
2019-02-02T21:36:29.855Z,97197.03
2019-02-02T21:41:34.939Z,97200.95
2019-02-02T21:46:40.014Z,97196.82
2019-02-02T21:51:46.228Z,97204.69
2019-02-02T21:56:51.376Z,97212.89
2019-02-02T22:01:56.594Z,97231.42
2019-02-02T22:07:02.211Z,97250.87
2019-02-02T22:12:07.738Z,97239.20
2019-02-02T22:17:14.047Z,97265.13
2019-02-02T22:22:19.479Z,97263.56
2019-02-02T22:27:24.633Z,97268.22
2019-02-02T22:32:30.211Z,97282.89
2019-02-02T22:37:35.486Z,97302.93
2019-02-02T22:42:40.911Z,97324.45
2019-02-02T22:47:46.814Z,97339.06
2019-02-02T22:52:52.314Z,97351.01
2019-02-02T22:57:57.480Z,97367.92
2019-02-02T23:03:02.817Z,97377.69
2019-02-02T23:08:20.158Z,97388.27
2019-02-02T23:14:18.791Z,97380.89
2019-02-02T23:19:24.409Z,97381.90
2019-02-02T23:24:30.172Z,97391.72
2019-02-02T23:29:35.243Z,97388.45
2019-02-02T23:34:40.429Z,97389.90
2019-02-02T23:39:45.493Z,97389.41
2019-02-02T23:44:50.978Z,97380.69
2019-02-02T23:49:57.843Z,97366.41
2019-02-02T23:55:02.995Z,97366.25
